Time;durP1;ratioP1;P1;durP2;ratioP2;P2;SDS_P1;SDS_P2;PMS_P1;PMS_P2;Temp;Humidity;BMP_temperature;BMP_pressure;BME280_temperature;BME280_humidity;BME280_pressure;Samples;Min_cycle;Max_cycle;Signal;HPM_P1;HPM_P2
2023/07/18 00:01:58;;;;;;;11.90;4.85;;;;;;;;;;5074572;28;20072;-78
2023/07/18 00:04:25;;;;;;;14.82;5.60;;;;;;;;;;5091816;28;20445;-78
2023/07/18 00:06:51;;;;;;;18.70;4.80;;;;;;;;;;5093274;28;20043;-78
2023/07/18 00:09:17;;;;;;;14.52;5.20;;;;;;;;;;5073917;28;20522;-78
2023/07/18 00:11:44;;;;;;;14.48;4.80;;;;;;;;;;5081991;28;20047;-78
2023/07/18 00:14:10;;;;;;;12.02;5.18;;;;;;;;;;5074913;28;20044;-78
2023/07/18 00:16:37;;;;;;;12.50;4.93;;;;;;;;;;5091694;28;20418;-78
2023/07/18 00:19:03;;;;;;;13.80;5.13;;;;;;;;;;5092916;28;20441;-78
2023/07/18 00:21:29;;;;;;;12.73;5.22;;;;;;;;;;5093041;28;20040;-78
2023/07/18 00:23:55;;;;;;;12.90;5.22;;;;;;;;;;5093150;28;20119;-78
2023/07/18 00:26:24;;;;;;;12.98;4.82;;;;;;;;;;5103926;28;20044;-78
2023/07/18 00:28:53;;;;;;;15.93;5.45;;;;;;;;;;5113799;28;20120;-79
2023/07/18 00:31:19;;;;;;;13.55;4.72;;;;;;;;;;5094961;28;20040;-78
2023/07/18 00:33:45;;;;;;;13.35;4.93;;;;;;;;;;5092847;28;20092;-78
2023/07/18 00:36:12;;;;;;;14.35;5.32;;;;;;;;;;5092953;28;20036;-78
2023/07/18 00:38:38;;;;;;;15.18;5.55;;;;;;;;;;5074609;28;20044;-78
2023/07/18 00:41:04;;;;;;;16.58;5.20;;;;;;;;;;5092723;28;20095;-78
2023/07/18 00:43:33;;;;;;;15.38;5.60;;;;;;;;;;5096382;28;20138;-75
2023/07/18 00:46:00;;;;;;;13.27;5.45;;;;;;;;;;5102644;28;20063;-78
2023/07/18 00:48:32;;;;;;;17.00;5.78;;;;;;;;;;5098081;28;20054;-76
2023/07/18 00:50:58;;;;;;;14.75;5.40;;;;;;;;;;5097933;28;20052;-77
2023/07/18 00:53:25;;;;;;;14.80;5.65;;;;;;;;;;5093029;28;20078;-77
2023/07/18 00:55:51;;;;;;;16.05;5.70;;;;;;;;;;5055810;28;20039;-77
2023/07/18 00:58:17;;;;;;;14.35;5.45;;;;;;;;;;5092475;28;20040;-78
2023/07/18 01:00:43;;;;;;;14.85;6.22;;;;;;;;;;5074269;28;20044;-77
2023/07/18 01:03:10;;;;;;;19.65;6.18;;;;;;;;;;5074866;28;20038;-78
2023/07/18 01:05:37;;;;;;;12.88;5.20;;;;;;;;;;5074434;28;20040;-78
2023/07/18 01:08:04;;;;;;;14.43;6.18;;;;;;;;;;5092358;28;20089;-78
2023/07/18 01:10:30;;;;;;;15.40;5.32;;;;;;;;;;5090546;28;20515;-78
2023/07/18 01:12:57;;;;;;;20.45;5.47;;;;;;;;;;5072657;28;20131;-78
2023/07/18 01:15:24;;;;;;;14.57;5.30;;;;;;;;;;5089953;28;20055;-79
2023/07/18 01:17:51;;;;;;;14.90;5.35;;;;;;;;;;5060380;28;20089;-77
2023/07/18 01:20:18;;;;;;;14.20;5.47;;;;;;;;;;5090743;28;20477;-78
2023/07/18 01:22:49;;;;;;;12.35;5.63;;;;;;;;;;5070634;28;20485;-78
2023/07/18 01:25:19;;;;;;;16.48;5.70;;;;;;;;;;5073689;28;20039;-78
2023/07/18 01:27:45;;;;;;;15.75;5.40;;;;;;;;;;5074048;28;20044;-77
2023/07/18 01:30:12;;;;;;;15.45;5.90;;;;;;;;;;5091954;28;20040;-77
2023/07/18 01:32:38;;;;;;;14.30;5.95;;;;;;;;;;5074536;28;20061;-78
2023/07/18 01:35:06;;;;;;;17.35;5.57;;;;;;;;;;5074261;28;20543;-77
2023/07/18 01:37:33;;;;;;;15.80;5.97;;;;;;;;;;5092422;28;20051;-78
2023/07/18 01:39:59;;;;;;;13.75;5.63;;;;;;;;;;5092358;28;20044;-78
2023/07/18 01:42:26;;;;;;;18.88;5.32;;;;;;;;;;5091043;28;20480;-78
2023/07/18 01:44:52;;;;;;;12.60;5.70;;;;;;;;;;5089871;28;20086;-77
2023/07/18 01:47:18;;;;;;;17.20;6.10;;;;;;;;;;5091226;28;20044;-78
2023/07/18 01:49:45;;;;;;;17.65;5.88;;;;;;;;;;5103074;28;20062;-78
2023/07/18 01:52:11;;;;;;;16.88;5.60;;;;;;;;;;5095345;28;20513;-78
2023/07/18 01:54:37;;;;;;;16.45;5.75;;;;;;;;;;5091882;28;20090;-78
2023/07/18 01:57:04;;;;;;;17.10;6.18;;;;;;;;;;5073255;28;20032;-78
2023/07/18 01:59:31;;;;;;;15.27;6.03;;;;;;;;;;5093514;28;20048;-77
2023/07/18 02:01:57;;;;;;;18.02;6.03;;;;;;;;;;5091803;28;20040;-78
2023/07/18 02:04:23;;;;;;;17.08;6.15;;;;;;;;;;5092201;28;20404;-78
2023/07/18 02:06:51;;;;;;;22.40;6.82;;;;;;;;;;5091841;28;20036;-78
2023/07/18 02:09:17;;;;;;;16.08;6.07;;;;;;;;;;5091822;28;20494;-78
2023/07/18 02:11:43;;;;;;;15.15;5.55;;;;;;;;;;5072620;28;20048;-78
2023/07/18 02:14:09;;;;;;;16.20;6.32;;;;;;;;;;5073555;28;20048;-78
2023/07/18 02:16:35;;;;;;;15.15;5.97;;;;;;;;;;5090821;28;20488;-78
2023/07/18 02:19:02;;;;;;;15.82;5.93;;;;;;;;;;5070121;28;20040;-78
2023/07/18 02:21:28;;;;;;;15.13;6.32;;;;;;;;;;5083134;28;20040;-78
2023/07/18 02:23:55;;;;;;;19.60;6.35;;;;;;;;;;5076804;28;20051;-79
2023/07/18 02:26:21;;;;;;;17.95;6.18;;;;;;;;;;5094577;28;20404;-79
2023/07/18 02:28:47;;;;;;;15.73;6.72;;;;;;;;;;5077213;28;20048;-79
2023/07/18 02:31:13;;;;;;;18.30;6.28;;;;;;;;;;5095072;28;20097;-79
2023/07/18 02:33:39;;;;;;;15.48;6.13;;;;;;;;;;5095256;28;20040;-78
2023/07/18 02:36:06;;;;;;;18.45;6.70;;;;;;;;;;5095082;28;20392;-78
2023/07/18 02:38:32;;;;;;;19.05;6.63;;;;;;;;;;5076695;28;20079;-78
2023/07/18 02:40:58;;;;;;;17.55;6.72;;;;;;;;;;5094608;28;20055;-78
2023/07/18 02:43:24;;;;;;;15.82;6.40;;;;;;;;;;5095105;28;20055;-78
2023/07/18 02:45:50;;;;;;;19.60;6.95;;;;;;;;;;5094075;28;20087;-78
2023/07/18 02:48:17;;;;;;;15.70;6.55;;;;;;;;;;5092921;28;20100;-78
2023/07/18 02:50:43;;;;;;;16.63;6.65;;;;;;;;;;5094623;28;20044;-78
2023/07/18 02:53:10;;;;;;;17.02;6.75;;;;;;;;;;5076511;28;20506;-78
2023/07/18 02:55:36;;;;;;;19.77;6.93;;;;;;;;;;5094557;28;20498;-78
2023/07/18 02:58:02;;;;;;;16.60;6.83;;;;;;;;;;5094063;28;20039;-78
2023/07/18 03:00:29;;;;;;;15.65;6.88;;;;;;;;;;5093784;28;20055;-78
2023/07/18 03:02:56;;;;;;;16.60;6.80;;;;;;;;;;5094242;28;20040;-78
2023/07/18 03:05:22;;;;;;;17.95;6.82;;;;;;;;;;5075988;28;20051;-78
2023/07/18 03:07:49;;;;;;;17.38;6.40;;;;;;;;;;5094422;28;20039;-78
2023/07/18 03:10:15;;;;;;;15.35;6.38;;;;;;;;;;5094397;28;20040;-78
2023/07/18 03:12:43;;;;;;;23.00;7.35;;;;;;;;;;5082238;28;20044;-78
2023/07/18 03:15:09;;;;;;;22.20;6.88;;;;;;;;;;5074872;28;20484;-78
2023/07/18 03:17:36;;;;;;;20.60;6.95;;;;;;;;;;5093108;28;20050;-76
2023/07/18 03:20:08;;;;;;;19.92;7.05;;;;;;;;;;5094025;28;20055;-77
2023/07/18 03:22:36;;;;;;;16.88;7.43;;;;;;;;;;5093759;28;20442;-77
2023/07/18 03:25:07;;;;;;;18.85;6.55;;;;;;;;;;5094125;28;20075;-77
2023/07/18 03:27:33;;;;;;;20.80;6.78;;;;;;;;;;5076270;28;20377;-77
2023/07/18 03:29:59;;;;;;;18.73;7.07;;;;;;;;;;5091850;28;20039;-77
2023/07/18 03:32:26;;;;;;;16.15;7.57;;;;;;;;;;5093912;28;20091;-77
2023/07/18 03:34:52;;;;;;;15.68;6.85;;;;;;;;;;5074941;28;20066;-77
2023/07/18 03:37:18;;;;;;;17.75;7.03;;;;;;;;;;5093350;28;20040;-78
2023/07/18 03:39:44;;;;;;;15.95;6.40;;;;;;;;;;5072189;28;20135;-78
2023/07/18 03:42:10;;;;;;;20.20;6.85;;;;;;;;;;5075297;28;20044;-77
2023/07/18 03:44:36;;;;;;;20.27;6.82;;;;;;;;;;5092793;28;20052;-77
2023/07/18 03:47:02;;;;;;;16.75;6.70;;;;;;;;;;5075140;28;20511;-78
2023/07/18 03:49:29;;;;;;;19.13;7.28;;;;;;;;;;5109190;28;20492;-76
2023/07/18 03:51:55;;;;;;;19.35;7.00;;;;;;;;;;5094507;28;20511;-76
2023/07/18 03:54:21;;;;;;;17.25;7.20;;;;;;;;;;5093962;28;20054;-77
2023/07/18 03:56:47;;;;;;;23.17;7.30;;;;;;;;;;5093648;28;20058;-76
2023/07/18 03:59:13;;;;;;;20.90;7.25;;;;;;;;;;5093562;28;20515;-78
2023/07/18 04:01:39;;;;;;;23.58;7.10;;;;;;;;;;5093620;28;20089;-78
2023/07/18 04:04:05;;;;;;;19.63;7.70;;;;;;;;;;5093405;28;20476;-78
2023/07/18 04:06:32;;;;;;;17.20;6.60;;;;;;;;;;5093407;28;20040;-77
2023/07/18 04:08:59;;;;;;;19.13;7.22;;;;;;;;;;5075527;28;20090;-76
2023/07/18 04:11:26;;;;;;;19.65;7.07;;;;;;;;;;5093025;28;20082;-78
2023/07/18 04:13:52;;;;;;;16.55;6.78;;;;;;;;;;5092244;28;20051;-78
2023/07/18 04:16:18;;;;;;;23.65;7.40;;;;;;;;;;5092967;28;20109;-77
2023/07/18 04:18:44;;;;;;;22.35;6.80;;;;;;;;;;5075173;28;20051;-78
2023/07/18 04:21:10;;;;;;;18.63;6.75;;;;;;;;;;5093371;28;20188;-78
2023/07/18 04:23:36;;;;;;;19.52;6.90;;;;;;;;;;5095068;28;20048;-75
2023/07/18 04:26:03;;;;;;;16.77;6.78;;;;;;;;;;5101286;28;20040;-74
2023/07/18 04:28:32;;;;;;;17.88;7.05;;;;;;;;;;5100748;28;20074;-74
2023/07/18 04:30:58;;;;;;;20.17;6.43;;;;;;;;;;5097075;28;20204;-76
2023/07/18 04:33:25;;;;;;;21.55;6.78;;;;;;;;;;5099330;28;20046;-75
2023/07/18 04:35:51;;;;;;;23.27;6.85;;;;;;;;;;5096164;28;20094;-77
2023/07/18 04:38:17;;;;;;;18.85;6.85;;;;;;;;;;5092856;28;20075;-77
2023/07/18 04:40:43;;;;;;;23.58;7.15;;;;;;;;;;5092324;28;20044;-78
2023/07/18 04:43:09;;;;;;;21.00;7.00;;;;;;;;;;5091986;28;20032;-77
2023/07/18 04:45:45;;;;;;;18.73;7.03;;;;;;;;;;5091894;28;20060;-78
2023/07/18 04:48:15;;;;;;;17.30;6.68;;;;;;;;;;5092261;28;20035;-78
2023/07/18 04:50:45;;;;;;;23.17;6.93;;;;;;;;;;5092905;28;20055;-78
2023/07/18 04:53:11;;;;;;;22.52;7.00;;;;;;;;;;5091186;28;20040;-76
2023/07/18 04:55:38;;;;;;;18.10;6.88;;;;;;;;;;5086218;28;20452;-77
2023/07/18 04:58:05;;;;;;;19.20;6.80;;;;;;;;;;5109304;28;20388;-78
2023/07/18 05:00:31;;;;;;;22.83;6.90;;;;;;;;;;5074313;28;20047;-78
2023/07/18 05:02:58;;;;;;;22.05;7.18;;;;;;;;;;5072978;28;20105;-78
2023/07/18 05:05:25;;;;;;;15.20;6.22;;;;;;;;;;5074124;28;20048;-78
2023/07/18 05:07:52;;;;;;;21.05;6.38;;;;;;;;;;5092694;28;20072;-78
2023/07/18 05:10:18;;;;;;;16.00;6.60;;;;;;;;;;5092435;28;20044;-77
2023/07/18 05:12:44;;;;;;;19.63;6.63;;;;;;;;;;5095109;28;20117;-76
2023/07/18 05:15:10;;;;;;;23.40;6.95;;;;;;;;;;5092007;28;20040;-77
2023/07/18 05:17:36;;;;;;;17.77;6.88;;;;;;;;;;5091994;28;20059;-78
2023/07/18 05:20:04;;;;;;;20.73;6.63;;;;;;;;;;5101096;28;20039;-78
2023/07/18 05:22:30;;;;;;;19.80;7.47;;;;;;;;;;5091693;28;20408;-77
2023/07/18 05:24:56;;;;;;;24.20;6.90;;;;;;;;;;5091837;28;20492;-77
2023/07/18 05:27:22;;;;;;;22.45;6.70;;;;;;;;;;5091306;28;20094;-72
2023/07/18 05:29:49;;;;;;;18.88;6.30;;;;;;;;;;5070783;28;20048;-74
2023/07/18 05:32:15;;;;;;;19.77;7.03;;;;;;;;;;5090045;28;20430;-72
2023/07/18 05:34:41;;;;;;;19.65;6.25;;;;;;;;;;5092282;28;20044;-72
2023/07/18 05:37:07;;;;;;;15.48;6.55;;;;;;;;;;5073799;28;20044;-72
2023/07/18 05:39:33;;;;;;;18.25;6.50;;;;;;;;;;5090994;28;20040;-73
2023/07/18 05:42:00;;;;;;;20.67;7.18;;;;;;;;;;5080604;28;20043;-73
2023/07/18 05:44:26;;;;;;;19.15;6.80;;;;;;;;;;5091650;28;20059;-72
2023/07/18 05:46:52;;;;;;;15.70;6.72;;;;;;;;;;5091976;28;20059;-73
2023/07/18 05:49:18;;;;;;;16.80;6.13;;;;;;;;;;5074451;28;20428;-73
2023/07/18 05:51:44;;;;;;;17.23;6.88;;;;;;;;;;5090892;28;20109;-73
2023/07/18 05:54:10;;;;;;;17.40;6.53;;;;;;;;;;5091223;28;20044;-73
2023/07/18 05:56:36;;;;;;;20.27;6.57;;;;;;;;;;5092349;28;20044;-73
2023/07/18 05:59:05;;;;;;;14.75;6.43;;;;;;;;;;5095441;28;20040;-73
2023/07/18 06:01:31;;;;;;;15.15;7.40;;;;;;;;;;5095599;28;20047;-73
2023/07/18 06:03:57;;;;;;;17.05;7.00;;;;;;;;;;5095903;28;20044;-73
2023/07/18 06:06:24;;;;;;;16.50;6.53;;;;;;;;;;5095715;28;20123;-74
2023/07/18 06:08:51;;;;;;;16.33;6.97;;;;;;;;;;5077218;28;20123;-74
2023/07/18 06:11:18;;;;;;;17.42;6.85;;;;;;;;;;5095183;28;20510;-73
2023/07/18 06:13:45;;;;;;;16.55;6.72;;;;;;;;;;5077115;28;20079;-73
2023/07/18 06:16:11;;;;;;;16.05;6.85;;;;;;;;;;5094969;28;20048;-73
2023/07/18 06:18:37;;;;;;;17.85;6.80;;;;;;;;;;5093692;28;20032;-73
2023/07/18 06:21:03;;;;;;;19.63;7.03;;;;;;;;;;5096695;28;20083;-73
2023/07/18 06:23:30;;;;;;;21.92;6.57;;;;;;;;;;5110454;28;20032;-73
2023/07/18 06:25:56;;;;;;;22.65;7.57;;;;;;;;;;5094064;28;20044;-73
2023/07/18 06:28:22;;;;;;;20.95;7.10;;;;;;;;;;5095152;28;20044;-73
2023/07/18 06:30:53;;;;;;;14.05;6.82;;;;;;;;;;5094114;28;20040;-75
2023/07/18 06:33:20;;;;;;;14.30;7.07;;;;;;;;;;5095246;28;20116;-75
2023/07/18 06:35:56;;;;;;;19.80;6.93;;;;;;;;;;5094859;28;20051;-75
2023/07/18 06:38:22;;;;;;;19.42;7.03;;;;;;;;;;5094860;28;20097;-75
2023/07/18 06:40:52;;;;;;;17.88;6.72;;;;;;;;;;5076055;28;20051;-75
2023/07/18 06:43:18;;;;;;;18.30;7.40;;;;;;;;;;5095530;28;20047;-75
2023/07/18 06:45:47;;;;;;;19.98;6.75;;;;;;;;;;5094186;28;20161;-76
2023/07/18 06:48:14;;;;;;;15.38;6.57;;;;;;;;;;5094734;28;20044;-76
2023/07/18 06:50:46;;;;;;;21.15;7.32;;;;;;;;;;5094484;28;20056;-76
2023/07/18 06:53:12;;;;;;;17.75;7.35;;;;;;;;;;5092723;28;20404;-74
2023/07/18 06:55:38;;;;;;;18.45;6.90;;;;;;;;;;5093983;28;20044;-75
2023/07/18 06:58:05;;;;;;;23.23;8.05;;;;;;;;;;5076379;28;20052;-74
2023/07/18 07:00:31;;;;;;;17.33;7.00;;;;;;;;;;5094229;28;20108;-74
2023/07/18 07:02:57;;;;;;;20.05;6.82;;;;;;;;;;5094590;28;20434;-74
2023/07/18 07:05:24;;;;;;;19.95;7.00;;;;;;;;;;5093062;28;20044;-75
2023/07/18 07:07:51;;;;;;;20.08;6.60;;;;;;;;;;5095875;28;20377;-76
2023/07/18 07:10:17;;;;;;;17.27;6.63;;;;;;;;;;5114872;28;20070;-76
2023/07/18 07:12:43;;;;;;;16.08;6.55;;;;;;;;;;5088068;28;20388;-76
2023/07/18 07:15:11;;;;;;;21.33;6.65;;;;;;;;;;5094370;28;20047;-75
2023/07/18 07:17:38;;;;;;;19.40;6.68;;;;;;;;;;5075850;28;20483;-76
2023/07/18 07:20:05;;;;;;;20.48;6.95;;;;;;;;;;5075118;28;20051;-76
2023/07/18 07:22:32;;;;;;;19.77;6.38;;;;;;;;;;5092810;28;20040;-76
2023/07/18 07:24:58;;;;;;;18.63;6.32;;;;;;;;;;5094166;28;20048;-76
2023/07/18 07:27:24;;;;;;;20.58;6.95;;;;;;;;;;5093511;28;20067;-76
2023/07/18 07:29:51;;;;;;;18.40;6.68;;;;;;;;;;5076190;28;20119;-74
2023/07/18 07:32:18;;;;;;;19.60;6.90;;;;;;;;;;5070840;28;20128;-74
2023/07/18 07:34:44;;;;;;;21.83;7.15;;;;;;;;;;5079926;28;20361;-75
2023/07/18 07:37:10;;;;;;;19.52;7.15;;;;;;;;;;5103839;28;20122;-74
2023/07/18 07:39:36;;;;;;;19.38;7.50;;;;;;;;;;5113129;28;20039;-74
2023/07/18 07:42:02;;;;;;;18.73;7.70;;;;;;;;;;5096499;28;20040;-74
2023/07/18 07:44:29;;;;;;;21.42;7.53;;;;;;;;;;5092302;28;20095;-74
2023/07/18 07:46:57;;;;;;;16.70;7.20;;;;;;;;;;5107384;28;20499;-75
2023/07/18 07:49:23;;;;;;;23.17;7.40;;;;;;;;;;5074714;28;20123;-74
2023/07/18 07:51:49;;;;;;;20.73;7.30;;;;;;;;;;5095798;28;20132;-75
2023/07/18 07:54:16;;;;;;;17.52;5.72;;;;;;;;;;5096375;28;20503;-75
2023/07/18 07:56:42;;;;;;;17.38;7.32;;;;;;;;;;5093519;28;20115;-75
2023/07/18 07:59:08;;;;;;;17.30;6.30;;;;;;;;;;5095125;28;20043;-72
2023/07/18 08:01:34;;;;;;;17.27;6.90;;;;;;;;;;5100737;28;20050;-73
2023/07/18 08:04:00;;;;;;;18.58;6.00;;;;;;;;;;5104195;28;20506;-75
2023/07/18 08:06:27;;;;;;;18.58;6.05;;;;;;;;;;5113852;28;20032;-75
2023/07/18 08:08:53;;;;;;;17.42;5.82;;;;;;;;;;5088114;28;20184;-75
2023/07/18 08:11:19;;;;;;;13.30;4.80;;;;;;;;;;5098439;28;20535;-74
2023/07/18 08:13:45;;;;;;;15.23;4.80;;;;;;;;;;5093150;28;20048;-75
2023/07/18 08:16:11;;;;;;;14.70;4.75;;;;;;;;;;5091324;28;20476;-74
2023/07/18 08:18:38;;;;;;;12.73;4.15;;;;;;;;;;5092738;28;20036;-74
2023/07/18 08:21:04;;;;;;;13.15;4.20;;;;;;;;;;5093263;28;20119;-75
2023/07/18 08:23:30;;;;;;;13.70;4.10;;;;;;;;;;5093142;28;20040;-74
2023/07/18 08:25:56;;;;;;;13.43;4.10;;;;;;;;;;5073876;28;20131;-74
2023/07/18 08:28:22;;;;;;;12.60;3.83;;;;;;;;;;5092791;28;20036;-75
2023/07/18 08:30:48;;;;;;;13.02;3.67;;;;;;;;;;5092863;28;20043;-75
2023/07/18 08:33:16;;;;;;;13.23;3.92;;;;;;;;;;5092883;28;20182;-75
2023/07/18 08:35:42;;;;;;;10.60;3.08;;;;;;;;;;5071550;28;20079;-75
2023/07/18 08:38:10;;;;;;;14.23;3.80;;;;;;;;;;5090941;28;20044;-75
2023/07/18 08:40:36;;;;;;;10.23;3.35;;;;;;;;;;5073628;28;20085;-75
2023/07/18 08:43:03;;;;;;;9.40;3.15;;;;;;;;;;5074543;28;20549;-75
2023/07/18 08:45:32;;;;;;;9.85;2.80;;;;;;;;;;5092286;28;20052;-74
2023/07/18 08:47:58;;;;;;;6.40;2.33;;;;;;;;;;5092303;28;20048;-74
2023/07/18 08:50:26;;;;;;;12.57;3.80;;;;;;;;;;5092650;28;20051;-74
2023/07/18 08:52:52;;;;;;;12.02;3.30;;;;;;;;;;5092681;28;20043;-74
2023/07/18 08:55:21;;;;;;;13.95;3.65;;;;;;;;;;5092270;28;20134;-75
2023/07/18 08:57:48;;;;;;;9.73;3.20;;;;;;;;;;5090989;28;20457;-74
2023/07/18 09:00:14;;;;;;;8.70;2.88;;;;;;;;;;5092212;28;20502;-74
2023/07/18 09:02:40;;;;;;;12.90;2.85;;;;;;;;;;5092569;28;20043;-74
2023/07/18 09:05:07;;;;;;;9.32;2.83;;;;;;;;;;5073800;28;20435;-74
2023/07/18 09:07:36;;;;;;;10.60;2.97;;;;;;;;;;5074385;28;20040;-74
2023/07/18 09:10:03;;;;;;;7.45;2.67;;;;;;;;;;5092555;28;20048;-75
2023/07/18 09:12:31;;;;;;;7.15;2.58;;;;;;;;;;5091963;28;20040;-75
2023/07/18 09:14:57;;;;;;;6.38;2.22;;;;;;;;;;5092034;28;20127;-75
2023/07/18 09:17:23;;;;;;;6.97;2.20;;;;;;;;;;5074242;28;20040;-74
2023/07/18 09:19:50;;;;;;;9.27;2.40;;;;;;;;;;5092060;28;20493;-75
2023/07/18 09:22:17;;;;;;;9.55;2.90;;;;;;;;;;5074304;28;20120;-74
2023/07/18 09:24:44;;;;;;;9.23;2.60;;;;;;;;;;5092203;28;20040;-74
2023/07/18 09:27:15;;;;;;;9.52;2.55;;;;;;;;;;5092218;28;20373;-74
2023/07/18 09:29:45;;;;;;;10.05;2.85;;;;;;;;;;5077914;28;20056;-75
2023/07/18 09:32:18;;;;;;;8.10;2.63;;;;;;;;;;5094600;28;20531;-75
2023/07/18 09:34:56;;;;;;;10.68;2.40;;;;;;;;;;5094116;28;20103;-75
2023/07/18 09:37:23;;;;;;;5.85;2.42;;;;;;;;;;5095713;28;20131;-74
2023/07/18 09:39:50;;;;;;;8.85;2.35;;;;;;;;;;5096098;28;20051;-74
2023/07/18 09:42:19;;;;;;;8.27;2.45;;;;;;;;;;5095793;28;20442;-75
2023/07/18 09:44:49;;;;;;;7.43;2.30;;;;;;;;;;5096057;28;20346;-74
2023/07/18 09:47:16;;;;;;;8.40;2.38;;;;;;;;;;5092877;28;20112;-74
2023/07/18 09:49:46;;;;;;;9.48;2.40;;;;;;;;;;5058017;28;20381;-75
2023/07/18 09:52:12;;;;;;;8.35;2.35;;;;;;;;;;5075407;28;20040;-75
2023/07/18 09:54:39;;;;;;;6.25;2.30;;;;;;;;;;5075474;28;20487;-75
2023/07/18 09:57:09;;;;;;;8.68;2.63;;;;;;;;;;5075162;28;20453;-75
2023/07/18 09:59:39;;;;;;;8.05;2.55;;;;;;;;;;5057278;28;20052;-74
2023/07/18 10:02:10;;;;;;;8.70;2.22;;;;;;;;;;5075553;28;20091;-75
2023/07/18 10:04:36;;;;;;;6.57;2.30;;;;;;;;;;5057703;28;20044;-75
2023/07/18 10:07:03;;;;;;;6.75;2.20;;;;;;;;;;5074993;28;20048;-73
2023/07/18 10:09:30;;;;;;;6.18;1.95;;;;;;;;;;5075074;28;20390;-74
2023/07/18 10:11:59;;;;;;;8.15;2.20;;;;;;;;;;5075222;28;20094;-74
2023/07/18 10:14:28;;;;;;;9.85;2.63;;;;;;;;;;5075412;28;20076;-74
2023/07/18 10:16:55;;;;;;;9.15;2.30;;;;;;;;;;5055728;28;20082;-74
2023/07/18 10:19:24;;;;;;;10.88;2.42;;;;;;;;;;5055242;28;20484;-74
2023/07/18 10:21:54;;;;;;;6.55;2.25;;;;;;;;;;5074560;28;20102;-74
2023/07/18 10:24:24;;;;;;;7.78;2.97;;;;;;;;;;5057121;28;20435;-74
2023/07/18 10:26:56;;;;;;;7.70;2.60;;;;;;;;;;5073761;28;20048;-74
2023/07/18 10:29:22;;;;;;;10.75;2.60;;;;;;;;;;5056518;28;20048;-74
2023/07/18 10:31:48;;;;;;;10.15;3.10;;;;;;;;;;5074770;28;20385;-74
2023/07/18 10:34:15;;;;;;;9.77;2.80;;;;;;;;;;5074707;28;20507;-74
2023/07/18 10:36:56;;;;;;;7.85;2.38;;;;;;;;;;5074730;28;20033;-74
2023/07/18 10:39:36;;;;;;;10.52;2.80;;;;;;;;;;5056032;28;20110;-73
2023/07/18 10:42:09;;;;;;;11.13;2.65;;;;;;;;;;5074551;28;20044;-74
2023/07/18 10:44:38;;;;;;;10.38;2.60;;;;;;;;;;5074658;28;20573;-74
2023/07/18 10:47:17;;;;;;;11.32;2.53;;;;;;;;;;5074206;28;20150;-74
2023/07/18 10:49:44;;;;;;;9.90;2.90;;;;;;;;;;5074518;28;20123;-74
2023/07/18 10:52:12;;;;;;;10.85;2.53;;;;;;;;;;5074170;28;20055;-74
2023/07/18 10:54:43;;;;;;;9.00;2.78;;;;;;;;;;5073106;28;20079;-74
2023/07/18 10:57:09;;;;;;;7.60;2.58;;;;;;;;;;5074079;28;20451;-74
2023/07/18 10:59:36;;;;;;;7.32;2.60;;;;;;;;;;5056456;28;20376;-75
2023/07/18 11:02:03;;;;;;;6.47;2.38;;;;;;;;;;5074062;28;20036;-74
2023/07/18 11:04:29;;;;;;;6.88;2.20;;;;;;;;;;5054886;28;20400;-75
2023/07/18 11:06:57;;;;;;;9.15;2.53;;;;;;;;;;5055847;28;20485;-75
2023/07/18 11:09:24;;;;;;;7.22;2.38;;;;;;;;;;5074524;28;20048;-75
2023/07/18 11:11:50;;;;;;;7.80;2.13;;;;;;;;;;5072788;28;20055;-76
2023/07/18 11:14:18;;;;;;;8.10;2.35;;;;;;;;;;5074508;28;20075;-74
2023/07/18 11:16:44;;;;;;;7.75;2.60;;;;;;;;;;5074375;28;20045;-75
2023/07/18 11:19:10;;;;;;;6.72;2.10;;;;;;;;;;5055749;28;20049;-77
2023/07/18 11:21:37;;;;;;;7.35;2.03;;;;;;;;;;5073894;28;20040;-75
2023/07/18 11:24:04;;;;;;;5.38;2.03;;;;;;;;;;5073960;28;20507;-75
2023/07/18 11:26:30;;;;;;;6.60;2.00;;;;;;;;;;5074077;28;20040;-75
2023/07/18 11:28:57;;;;;;;7.43;2.08;;;;;;;;;;5054648;28;20052;-75
2023/07/18 11:31:27;;;;;;;5.35;1.92;;;;;;;;;;5072877;28;20456;-76
2023/07/18 11:33:54;;;;;;;4.78;1.83;;;;;;;;;;5071665;28;20055;-76
2023/07/18 11:36:27;;;;;;;5.03;1.90;;;;;;;;;;5073668;28;20396;-75
2023/07/18 11:38:53;;;;;;;6.15;1.65;;;;;;;;;;5071876;28;20056;-76
2023/07/18 11:41:34;;;;;;;5.28;2.00;;;;;;;;;;5074088;28;20048;-76
2023/07/18 11:44:04;;;;;;;5.88;2.10;;;;;;;;;;5075477;28;20053;-75
2023/07/18 11:46:35;;;;;;;6.20;2.00;;;;;;;;;;5078524;28;20053;-75
2023/07/18 11:49:01;;;;;;;8.25;1.90;;;;;;;;;;5075522;28;20167;-75
2023/07/18 11:51:27;;;;;;;6.63;2.20;;;;;;;;;;5072375;28;20353;-75
2023/07/18 11:53:54;;;;;;;11.15;2.20;;;;;;;;;;5073636;28;20044;-75
2023/07/18 11:56:21;;;;;;;6.20;2.15;;;;;;;;;;5055125;28;20051;-74
2023/07/18 11:58:47;;;;;;;6.28;1.98;;;;;;;;;;5073495;28;20077;-75
2023/07/18 12:01:13;;;;;;;7.75;2.00;;;;;;;;;;5073111;28;20481;-74
2023/07/18 12:03:40;;;;;;;6.88;2.00;;;;;;;;;;5062525;28;20123;-73
2023/07/18 12:06:06;;;;;;;9.48;2.42;;;;;;;;;;5091180;28;20523;-74
2023/07/18 12:08:32;;;;;;;8.95;2.20;;;;;;;;;;5092390;28;20040;-74
2023/07/18 12:10:58;;;;;;;6.60;2.08;;;;;;;;;;5092901;28;20411;-74
2023/07/18 12:13:25;;;;;;;5.80;1.90;;;;;;;;;;5074825;28;20044;-75
2023/07/18 12:15:53;;;;;;;8.20;2.00;;;;;;;;;;5093123;28;20056;-74
2023/07/18 12:18:20;;;;;;;5.85;2.13;;;;;;;;;;5092503;28;20404;-74
2023/07/18 12:20:46;;;;;;;8.40;2.15;;;;;;;;;;5092735;28;20090;-74
2023/07/18 12:23:12;;;;;;;7.75;2.22;;;;;;;;;;5074854;28;20056;-74
2023/07/18 12:25:38;;;;;;;6.43;2.08;;;;;;;;;;5074503;28;20040;-74
2023/07/18 12:28:05;;;;;;;4.28;1.85;;;;;;;;;;5093302;28;20395;-74
2023/07/18 12:30:31;;;;;;;6.82;1.90;;;;;;;;;;5093160;28;20040;-77
2023/07/18 12:32:58;;;;;;;5.70;2.22;;;;;;;;;;5092595;28;20487;-75
2023/07/18 12:35:25;;;;;;;6.00;2.10;;;;;;;;;;5092211;28;20063;-79
2023/07/18 12:37:54;;;;;;;6.40;2.28;;;;;;;;;;5091994;28;20055;-80
2023/07/18 12:40:20;;;;;;;7.35;2.20;;;;;;;;;;5074288;28;20094;-82
2023/07/18 12:42:47;;;;;;;5.43;2.15;;;;;;;;;;5075176;28;20391;-82
2023/07/18 12:45:13;;;;;;;7.05;1.95;;;;;;;;;;5092561;28;20500;-81
2023/07/18 12:47:39;;;;;;;5.25;1.90;;;;;;;;;;5093281;28;20040;-81
2023/07/18 12:50:06;;;;;;;5.45;1.80;;;;;;;;;;5093009;28;20140;-81
2023/07/18 12:52:33;;;;;;;6.13;1.83;;;;;;;;;;5093091;28;20067;-81
2023/07/18 12:55:00;;;;;;;5.53;2.10;;;;;;;;;;5092987;28;20101;-82
2023/07/18 12:57:27;;;;;;;7.43;1.92;;;;;;;;;;5092706;28;20496;-80
2023/07/18 12:59:53;;;;;;;6.85;2.00;;;;;;;;;;5073523;28;20050;-82
2023/07/18 13:02:20;;;;;;;5.63;1.95;;;;;;;;;;5074174;28;20044;-82
2023/07/18 13:04:46;;;;;;;5.93;2.03;;;;;;;;;;5074413;28;20081;-82
2023/07/18 13:07:12;;;;;;;7.40;2.30;;;;;;;;;;5091742;28;20032;-84
2023/07/18 13:09:39;;;;;;;6.03;2.10;;;;;;;;;;5072910;28;20069;-84
2023/07/18 13:12:05;;;;;;;6.13;2.20;;;;;;;;;;5071934;28;20116;-74
2023/07/18 13:14:32;;;;;;;6.13;2.00;;;;;;;;;;5092087;28;20047;-74
2023/07/18 13:16:58;;;;;;;5.88;2.25;;;;;;;;;;5074043;28;20048;-73
2023/07/18 13:19:24;;;;;;;5.45;1.92;;;;;;;;;;5073977;28;20090;-73
2023/07/18 13:21:50;;;;;;;7.63;2.00;;;;;;;;;;5092090;28;20046;-73
2023/07/18 13:24:16;;;;;;;4.90;1.95;;;;;;;;;;5074058;28;20044;-73
2023/07/18 13:26:42;;;;;;;4.78;1.75;;;;;;;;;;5091693;28;20392;-73
2023/07/18 13:29:09;;;;;;;8.70;2.22;;;;;;;;;;5091976;28;20097;-73
2023/07/18 13:31:35;;;;;;;4.72;2.00;;;;;;;;;;5091990;28;20051;-73
2023/07/18 13:34:02;;;;;;;6.03;2.05;;;;;;;;;;5091995;28;20044;-73
2023/07/18 13:36:28;;;;;;;5.38;1.92;;;;;;;;;;5092042;28;20040;-73
2023/07/18 13:38:54;;;;;;;3.53;1.80;;;;;;;;;;5091878;28;20040;-73
2023/07/18 13:41:21;;;;;;;4.30;1.90;;;;;;;;;;5073745;28;20048;-73
2023/07/18 13:43:47;;;;;;;3.70;1.70;;;;;;;;;;5073491;28;20131;-73
2023/07/18 13:46:14;;;;;;;4.68;1.65;;;;;;;;;;5073675;28;20048;-73
2023/07/18 13:48:40;;;;;;;4.13;1.50;;;;;;;;;;5091956;28;20040;-73
2023/07/18 13:51:07;;;;;;;6.13;1.52;;;;;;;;;;5090887;28;20167;-72
2023/07/18 13:53:33;;;;;;;3.00;1.40;;;;;;;;;;5091171;28;20412;-72
2023/07/18 13:56:00;;;;;;;5.38;1.70;;;;;;;;;;5091635;28;20039;-72
2023/07/18 13:58:26;;;;;;;3.92;1.60;;;;;;;;;;5092233;28;20376;-73
2023/07/18 14:00:52;;;;;;;2.83;1.50;;;;;;;;;;5091835;28;20044;-72
2023/07/18 14:03:18;;;;;;;6.35;1.73;;;;;;;;;;5091402;28;20043;-72
2023/07/18 14:05:45;;;;;;;3.80;1.70;;;;;;;;;;5073344;28;20484;-73
2023/07/18 14:08:11;;;;;;;4.43;1.77;;;;;;;;;;5073584;28;20047;-73
2023/07/18 14:10:38;;;;;;;4.80;2.00;;;;;;;;;;5091633;28;20358;-73
2023/07/18 14:13:04;;;;;;;4.43;1.85;;;;;;;;;;5091631;28;20105;-73
2023/07/18 14:15:30;;;;;;;4.47;1.70;;;;;;;;;;5093952;28;20048;-72
2023/07/18 14:17:56;;;;;;;6.03;2.08;;;;;;;;;;5095539;28;20136;-73
2023/07/18 14:20:22;;;;;;;5.28;2.10;;;;;;;;;;5095200;28;20389;-73
2023/07/18 14:22:49;;;;;;;4.72;1.98;;;;;;;;;;5095432;28;20357;-72
2023/07/18 14:25:16;;;;;;;7.00;2.13;;;;;;;;;;5095285;28;20050;-73
2023/07/18 14:27:42;;;;;;;5.55;2.03;;;;;;;;;;5076995;28;20126;-73
2023/07/18 14:30:08;;;;;;;4.15;2.28;;;;;;;;;;5095460;28;20173;-73
2023/07/18 14:32:38;;;;;;;5.45;2.22;;;;;;;;;;5094555;28;20040;-73